createdAt,value
2023-07-10T00:04:44.023Z,8.63
2023-07-10T00:09:46.349Z,8.13
2023-07-10T00:14:50.281Z,8.88
2023-07-10T00:19:53.165Z,8.63
2023-07-10T00:24:55.560Z,9.45
2023-07-10T00:29:59.349Z,10.95
2023-07-10T00:35:02.187Z,11.90
2023-07-10T00:40:19.167Z,14.70
2023-07-10T00:45:23.008Z,14.40
2023-07-10T00:50:36.408Z,13.93
2023-07-10T00:55:40.422Z,14.98
2023-07-10T01:01:04.564Z,13.57
2023-07-10T01:06:23.750Z,13.50
2023-07-10T01:11:27.042Z,11.18
2023-07-10T01:16:31.817Z,11.93
2023-07-10T01:21:38.885Z,9.82
2023-07-10T01:26:42.039Z,10.98
2023-07-10T01:31:46.734Z,11.57
2023-07-10T01:36:50.867Z,11.88
2023-07-10T01:41:53.796Z,10.45
2023-07-10T01:46:57.637Z,11.00
2023-07-10T01:52:03.555Z,10.18
2023-07-10T01:57:07.512Z,9.10
2023-07-10T02:02:12.077Z,9.45
2023-07-10T02:07:15.163Z,10.25
2023-07-10T02:12:17.548Z,10.02
2023-07-10T02:17:20.628Z,10.68
2023-07-10T02:22:23.989Z,9.88
2023-07-10T02:27:26.337Z,9.20
2023-07-10T02:32:29.896Z,7.93
2023-07-10T02:37:32.168Z,8.75
2023-07-10T02:42:35.767Z,7.78
2023-07-10T02:47:39.842Z,7.82
2023-07-10T02:52:43.333Z,9.50
2023-07-10T02:57:45.831Z,8.85
2023-07-10T03:02:48.387Z,6.32
2023-07-10T03:07:51.850Z,6.07
2023-07-10T03:12:54.556Z,6.05
2023-07-10T03:17:57.378Z,5.43
2023-07-10T03:23:00.290Z,5.72
2023-07-10T03:28:03.183Z,6.18
2023-07-10T03:33:06.196Z,6.03
2023-07-10T03:38:10.157Z,5.93
2023-07-10T03:43:13.471Z,6.05
2023-07-10T03:48:16.305Z,6.82
2023-07-10T03:53:19.553Z,6.47
2023-07-10T03:58:26.302Z,6.72
2023-07-10T04:03:32.201Z,7.05
2023-07-10T04:08:37.604Z,7.05
2023-07-10T04:13:40.144Z,6.93
2023-07-10T04:18:43.696Z,6.95
2023-07-10T04:23:47.579Z,6.55
2023-07-10T04:28:52.856Z,6.63
2023-07-10T04:33:58.759Z,7.25
2023-07-10T04:39:01.340Z,6.45
2023-07-10T04:44:04.322Z,6.78
2023-07-10T04:49:07.118Z,6.90
2023-07-10T04:54:11.755Z,6.18
2023-07-10T04:59:16.645Z,6.25
2023-07-10T05:04:19.022Z,6.47
2023-07-10T05:09:21.917Z,6.75
2023-07-10T05:14:24.559Z,6.80
2023-07-10T05:19:27.788Z,6.70
2023-07-10T05:24:31.961Z,6.88
2023-07-10T05:34:37.588Z,7.45
2023-07-10T05:39:40.122Z,6.07
2023-07-10T05:44:44.387Z,6.47
2023-07-10T05:49:50.923Z,5.40
2023-07-10T05:54:55.257Z,5.60
2023-07-10T05:59:58.150Z,4.47
2023-07-10T06:05:00.716Z,5.45
2023-07-10T06:10:03.945Z,4.60
2023-07-10T06:15:08.528Z,5.53
2023-07-10T06:20:11.304Z,4.63
2023-07-10T06:25:15.084Z,6.25
2023-07-10T06:30:17.474Z,5.63
2023-07-10T06:35:20.536Z,6.72
2023-07-10T06:40:23.277Z,6.25
2023-07-10T06:45:26.697Z,6.13
2023-07-10T06:50:31.199Z,5.90
2023-07-10T06:55:33.716Z,5.53
2023-07-10T07:00:36.385Z,5.18
2023-07-10T07:05:42.416Z,5.80
2023-07-10T07:10:46.699Z,5.72
2023-07-10T07:20:55.258Z,4.15
2023-07-10T07:25:58.702Z,5.30
2023-07-10T07:31:06.836Z,4.40
2023-07-10T07:36:09.888Z,3.10
2023-07-10T07:41:13.144Z,3.85
2023-07-10T07:46:16.633Z,3.35
2023-07-10T07:51:19.063Z,3.05
2023-07-10T07:56:22.006Z,3.47
2023-07-10T08:01:25.487Z,3.92
2023-07-10T08:06:34.230Z,3.80
2023-07-10T08:11:37.126Z,3.80
2023-07-10T08:16:41.625Z,3.40
2023-07-10T08:21:44.609Z,3.50
2023-07-10T08:26:48.218Z,3.30
2023-07-10T08:31:51.087Z,3.80
2023-07-10T08:36:54.941Z,3.65
2023-07-10T08:42:02.870Z,3.63
2023-07-10T08:47:17.538Z,3.22
2023-07-10T08:52:34.511Z,3.05
2023-07-10T08:57:40.132Z,3.00
2023-07-10T09:03:01.750Z,3.00
2023-07-10T09:08:08.053Z,3.45
2023-07-10T09:13:20.595Z,3.40
2023-07-10T09:18:30.023Z,2.97
2023-07-10T09:23:36.043Z,3.20
2023-07-10T09:28:40.517Z,5.05
2023-07-10T09:34:02.705Z,3.10
2023-07-10T09:39:05.487Z,3.15
2023-07-10T09:44:21.509Z,3.13
2023-07-10T09:49:24.935Z,3.72
2023-07-10T09:54:40.009Z,7.43
2023-07-10T09:59:50.541Z,4.07
2023-07-10T10:05:14.588Z,3.28
2023-07-10T10:10:28.958Z,3.85
2023-07-10T10:15:54.256Z,3.78
2023-07-10T10:20:58.220Z,4.80
2023-07-10T10:26:18.280Z,7.25
2023-07-10T10:31:27.867Z,7.40
2023-07-10T10:36:47.183Z,9.70
2023-07-10T10:42:04.932Z,10.90
2023-07-10T10:47:39.347Z,11.35
2023-07-10T10:53:07.517Z,11.45
2023-07-10T10:58:48.010Z,12.70
2023-07-10T11:03:56.312Z,14.88
2023-07-10T11:09:04.439Z,11.18
2023-07-10T11:14:08.812Z,13.25
2023-07-10T11:19:40.308Z,12.52
2023-07-10T11:24:50.792Z,11.90
2023-07-10T11:30:17.041Z,13.98
2023-07-10T11:35:22.052Z,13.70
2023-07-10T11:40:28.595Z,10.77
2023-07-10T11:45:45.128Z,12.32
2023-07-10T11:50:50.129Z,10.45
2023-07-10T11:55:56.089Z,10.73
2023-07-10T12:01:17.529Z,10.45
2023-07-10T12:06:26.674Z,9.85
2023-07-10T12:11:35.458Z,8.50
2023-07-10T12:17:11.037Z,9.73
2023-07-10T12:22:26.709Z,8.07
2023-07-10T12:32:43.714Z,8.30
2023-07-10T12:42:52.689Z,6.97
2023-07-10T12:48:14.732Z,5.78
2023-07-10T12:53:23.519Z,7.57
2023-07-10T12:58:35.709Z,5.78
2023-07-10T13:03:38.551Z,6.10
2023-07-10T13:08:42.200Z,8.02
2023-07-10T13:13:46.155Z,6.97
2023-07-10T13:18:49.421Z,6.65
2023-07-10T13:23:56.242Z,6.70
2023-07-10T13:28:58.714Z,5.95
2023-07-10T13:34:01.281Z,6.55
2023-07-10T13:39:04.492Z,5.97
2023-07-10T13:44:07.619Z,10.35
2023-07-10T13:49:14.561Z,7.97
2023-07-10T13:54:17.788Z,6.20
2023-07-10T13:59:21.852Z,6.18
2023-07-10T14:04:24.431Z,5.88
2023-07-10T14:09:32.083Z,6.95
2023-07-10T14:14:36.483Z,5.85
2023-07-10T14:19:38.882Z,5.10
2023-07-10T14:24:42.126Z,5.80
2023-07-10T14:29:45.100Z,6.07
2023-07-10T14:34:49.315Z,5.80
2023-07-10T14:39:52.592Z,4.50
2023-07-10T14:44:55.791Z,3.72
2023-07-10T14:49:58.775Z,4.43
2023-07-10T14:55:04.651Z,4.05
2023-07-10T15:00:20.079Z,4.25
2023-07-10T15:05:25.068Z,3.22
2023-07-10T15:10:29.613Z,3.50
2023-07-10T15:15:38.844Z,2.95
2023-07-10T15:20:41.821Z,3.58
2023-07-10T15:25:44.785Z,2.70
2023-07-10T15:30:55.555Z,2.15
2023-07-10T15:35:59.963Z,2.30
2023-07-10T15:41:04.114Z,9.57
2023-07-10T15:46:06.853Z,3.10
2023-07-10T15:51:24.352Z,3.03
2023-07-10T16:01:36.156Z,2.10
2023-07-10T16:06:40.131Z,2.13
2023-07-10T16:16:46.400Z,1.63
2023-07-10T16:21:53.530Z,4.57
2023-07-10T16:26:56.622Z,1.65
2023-07-10T16:31:59.047Z,1.50
2023-07-10T16:37:01.592Z,1.40
2023-07-10T16:42:04.358Z,1.10
2023-07-10T16:47:19.115Z,0.90
2023-07-10T16:52:21.652Z,1.00
2023-07-10T16:57:26.018Z,0.80
2023-07-10T17:02:28.747Z,1.40
2023-07-10T17:07:31.148Z,0.75
2023-07-10T17:12:33.882Z,1.58
2023-07-10T17:17:36.729Z,1.05
2023-07-10T17:22:39.289Z,1.02
2023-07-10T17:27:42.596Z,1.00
2023-07-10T17:32:46.337Z,1.00
2023-07-10T17:37:50.993Z,1.38
2023-07-10T17:42:53.563Z,1.25
2023-07-10T17:47:55.979Z,1.20
2023-07-10T17:52:58.523Z,1.75
2023-07-10T17:58:12.517Z,3.97
2023-07-10T18:03:17.701Z,1.48
2023-07-10T18:08:31.416Z,1.70
2023-07-10T18:13:40.149Z,1.63
2023-07-10T18:18:43.055Z,2.03
2023-07-10T18:23:45.536Z,1.83
2023-07-10T18:28:50.795Z,2.05
2023-07-10T18:33:56.395Z,2.22
2023-07-10T18:38:59.743Z,2.35
2023-07-10T18:44:05.466Z,1.90
2023-07-10T18:49:24.430Z,2.08
2023-07-10T18:54:27.703Z,1.63
2023-07-10T18:59:30.446Z,1.75
2023-07-10T19:04:33.105Z,1.40
2023-07-10T19:09:35.595Z,1.50
2023-07-10T19:14:38.274Z,1.70
2023-07-10T19:19:47.527Z,1.70
2023-07-10T19:24:50.097Z,2.20
2023-07-10T19:29:52.496Z,2.17
2023-07-10T19:34:54.955Z,1.40
2023-07-10T19:39:58.995Z,1.60
2023-07-10T19:45:02.721Z,1.52
2023-07-10T19:50:19.220Z,1.40
2023-07-10T19:55:22.124Z,1.45
2023-07-10T20:00:28.920Z,1.70
2023-07-10T20:05:31.775Z,1.02
2023-07-10T20:10:35.146Z,1.20
2023-07-10T20:15:38.594Z,1.10
2023-07-10T20:20:41.570Z,1.10
2023-07-10T20:25:46.737Z,1.30
2023-07-10T20:35:54.382Z,1.17
2023-07-10T20:40:57.795Z,0.90
2023-07-10T20:46:11.036Z,1.20
2023-07-10T20:51:26.062Z,1.38
2023-07-10T20:56:32.013Z,1.15
2023-07-10T21:01:34.558Z,0.50
2023-07-10T21:06:38.068Z,0.40
2023-07-10T21:11:40.404Z,0.43
2023-07-10T21:16:45.323Z,0.40
2023-07-10T21:21:49.671Z,0.40
2023-07-10T21:26:58.392Z,0.45
2023-07-10T21:32:01.430Z,0.57
2023-07-10T21:37:05.136Z,0.60
2023-07-10T21:42:18.458Z,0.90
2023-07-10T21:47:22.004Z,0.57
2023-07-10T21:52:25.572Z,0.90
2023-07-10T21:57:28.669Z,0.90
2023-07-10T22:02:31.752Z,1.38
2023-07-10T22:07:34.350Z,0.85
2023-07-10T22:12:36.716Z,0.90
2023-07-10T22:17:40.673Z,0.93
2023-07-10T22:22:43.325Z,0.63
2023-07-10T22:27:46.553Z,0.82
2023-07-10T22:32:49.063Z,0.70
2023-07-10T22:37:53.254Z,0.60
2023-07-10T22:42:56.234Z,0.60
2023-07-10T22:47:59.532Z,0.60
2023-07-10T22:53:03.029Z,0.60
2023-07-10T22:58:07.018Z,0.40
2023-07-10T23:03:10.613Z,0.40
2023-07-10T23:08:13.653Z,0.52
2023-07-10T23:13:16.353Z,0.77
2023-07-10T23:18:19.080Z,0.40
2023-07-10T23:23:22.470Z,0.30
2023-07-10T23:28:25.054Z,0.40
2023-07-10T23:33:27.412Z,0.60
2023-07-10T23:38:29.822Z,0.52
2023-07-10T23:43:32.384Z,0.80
2023-07-10T23:48:36.565Z,0.82
2023-07-10T23:53:40.594Z,1.00
2023-07-10T23:58:44.216Z,0.90
